Time;durP1;ratioP1;P1;durP2;ratioP2;P2;SDS_P1;SDS_P2;PMS_P1;PMS_P2;Temp;Humidity;BMP_temperature;BMP_pressure;BME280_temperature;BME280_humidity;BME280_pressure;Samples;Min_cycle;Max_cycle;Signal;HPM_P1;HPM_P2
2023/07/14 00:00:32;;;;;;;5.17;2.47;;;;;;;;;;4950052;29;20598;-70
2023/07/14 00:02:58;;;;;;;3.83;2.40;;;;;;;;;;4949429;29;20178;-70
2023/07/14 00:05:28;;;;;;;4.57;2.50;;;;;;;;;;4932463;29;20187;-70
2023/07/14 00:08:18;;;;;;;4.13;2.20;;;;;;;;;;4938651;29;20182;-70
2023/07/14 00:10:45;;;;;;;3.93;2.27;;;;;;;;;;4952508;29;20198;-70
2023/07/14 00:13:13;;;;;;;3.17;2.37;;;;;;;;;;4953168;29;20190;-70
2023/07/14 00:15:39;;;;;;;3.90;2.50;;;;;;;;;;4953293;29;21070;-70
2023/07/14 00:18:25;;;;;;;3.10;2.70;;;;;;;;;;4953012;29;20238;-70
2023/07/14 00:20:52;;;;;;;4.80;2.33;;;;;;;;;;4952803;29;20202;-70
2023/07/14 00:23:18;;;;;;;6.50;2.90;;;;;;;;;;4952890;29;20218;-70
2023/07/14 00:25:45;;;;;;;4.00;2.50;;;;;;;;;;4952261;29;20186;-70
2023/07/14 00:28:29;;;;;;;2.77;2.30;;;;;;;;;;4953079;29;20174;-70
2023/07/14 00:30:57;;;;;;;2.70;2.37;;;;;;;;;;4935337;29;20193;-70
2023/07/14 00:33:42;;;;;;;2.93;2.60;;;;;;;;;;4935382;29;20273;-71
2023/07/14 00:36:10;;;;;;;3.60;2.67;;;;;;;;;;4935453;29;20240;-70
2023/07/14 00:38:37;;;;;;;5.60;2.50;;;;;;;;;;4919639;29;20693;-70
2023/07/14 00:41:07;;;;;;;4.70;2.70;;;;;;;;;;4951479;29;20671;-70
2023/07/14 00:43:34;;;;;;;4.63;2.73;;;;;;;;;;4935274;29;20289;-70
2023/07/14 00:46:01;;;;;;;5.13;2.60;;;;;;;;;;4951908;29;20197;-69
2023/07/14 00:48:28;;;;;;;3.90;2.57;;;;;;;;;;4919792;29;20198;-70
2023/07/14 00:50:55;;;;;;;3.30;2.57;;;;;;;;;;4934881;29;20190;-70
2023/07/14 01:28:07;;;;;;;3.43;2.60;;;;;;;;;;4930695;29;20178;-70
2023/07/14 01:30:35;;;;;;;4.73;2.93;;;;;;;;;;4916182;29;20187;-70
2023/07/14 01:33:01;;;;;;;5.13;2.97;;;;;;;;;;4932032;29;20941;-70
2023/07/14 01:35:31;;;;;;;4.30;3.07;;;;;;;;;;4915186;29;20226;-70
2023/07/14 01:37:58;;;;;;;4.47;3.10;;;;;;;;;;4915003;29;20555;-70
2023/07/14 01:40:25;;;;;;;5.93;3.20;;;;;;;;;;4914692;29;20281;-70
2023/07/14 01:42:53;;;;;;;5.07;2.90;;;;;;;;;;4915496;29;20190;-70
2023/07/14 01:45:44;;;;;;;5.17;3.10;;;;;;;;;;4932147;29;20245;-70
2023/07/14 01:48:11;;;;;;;6.00;3.20;;;;;;;;;;4915779;29;20273;-69
2023/07/14 01:50:39;;;;;;;5.43;3.10;;;;;;;;;;4915245;29;20195;-70
2023/07/14 01:53:10;;;;;;;4.10;2.70;;;;;;;;;;4899120;29;20195;-70
2023/07/14 01:55:37;;;;;;;5.77;2.87;;;;;;;;;;4899140;29;20294;-69
2023/07/14 01:58:23;;;;;;;5.70;3.30;;;;;;;;;;4935996;28;20206;-70
2023/07/14 02:00:50;;;;;;;5.67;3.30;;;;;;;;;;4933706;29;20679;-70
2023/07/14 02:03:39;;;;;;;12.47;2.67;;;;;;;;;;4934141;29;20178;-70
2023/07/14 02:06:07;;;;;;;7.67;3.10;;;;;;;;;;4933596;29;20207;-70
2023/07/14 02:08:51;;;;;;;6.90;3.07;;;;;;;;;;4936566;29;20166;-69
2023/07/14 02:11:18;;;;;;;3.83;2.70;;;;;;;;;;4933357;29;20193;-70
2023/07/14 02:14:02;;;;;;;5.70;3.03;;;;;;;;;;4951557;28;20174;-69
2023/07/14 02:16:29;;;;;;;3.57;2.80;;;;;;;;;;4950270;29;20194;-69
2023/07/14 02:18:56;;;;;;;3.93;2.90;;;;;;;;;;4933860;29;20226;-69
2023/07/14 02:21:24;;;;;;;4.87;3.07;;;;;;;;;;4950603;29;20241;-69
2023/07/14 02:23:51;;;;;;;5.10;3.27;;;;;;;;;;4933818;29;20190;-70
2023/07/14 02:26:36;;;;;;;6.13;3.40;;;;;;;;;;4933353;29;20309;-69
2023/07/14 02:29:05;;;;;;;4.47;3.40;;;;;;;;;;4916891;29;20202;-69
2023/07/14 02:31:33;;;;;;;4.07;3.33;;;;;;;;;;4950759;29;20197;-69
2023/07/14 02:34:00;;;;;;;7.37;3.30;;;;;;;;;;4933448;29;20305;-70
2023/07/14 02:36:46;;;;;;;3.83;3.10;;;;;;;;;;4950924;29;20232;-69
2023/07/14 02:39:12;;;;;;;6.57;3.17;;;;;;;;;;4950740;29;20189;-69
2023/07/14 02:41:40;;;;;;;7.23;3.33;;;;;;;;;;4950139;29;20950;-70
2023/07/14 02:44:07;;;;;;;4.20;3.00;;;;;;;;;;4933024;29;20190;-70
2023/07/14 02:46:53;;;;;;;4.50;3.10;;;;;;;;;;4928814;29;20174;-70
2023/07/14 02:49:20;;;;;;;3.93;3.50;;;;;;;;;;4933219;29;20197;-70
2023/07/14 02:52:05;;;;;;;4.17;3.00;;;;;;;;;;4932882;29;20350;-70
2023/07/14 02:54:32;;;;;;;5.80;3.50;;;;;;;;;;4933302;29;20205;-70
2023/07/14 02:57:00;;;;;;;3.87;2.97;;;;;;;;;;4949934;29;20205;-70
2023/07/14 02:59:27;;;;;;;7.27;3.03;;;;;;;;;;4946035;29;20272;-70
2023/07/14 03:01:53;;;;;;;3.53;3.17;;;;;;;;;;4933131;29;20197;-69
2023/07/14 03:04:21;;;;;;;5.30;3.47;;;;;;;;;;4938766;29;20198;-67
2023/07/14 03:06:49;;;;;;;4.77;3.40;;;;;;;;;;4931094;29;20198;-67
2023/07/14 03:09:16;;;;;;;6.20;3.57;;;;;;;;;;4948619;29;20745;-67
2023/07/14 03:12:01;;;;;;;5.50;3.33;;;;;;;;;;4948153;29;20174;-68
2023/07/14 03:14:28;;;;;;;8.40;3.60;;;;;;;;;;4948623;29;20252;-67
2023/07/14 03:17:12;;;;;;;5.20;3.80;;;;;;;;;;4947887;29;20185;-67
2023/07/14 03:19:39;;;;;;;6.40;3.93;;;;;;;;;;4947614;29;20201;-67
2023/07/14 03:22:06;;;;;;;7.77;4.07;;;;;;;;;;4947393;29;20676;-67
2023/07/14 03:24:32;;;;;;;6.93;4.27;;;;;;;;;;4930719;29;20264;-67
2023/07/14 03:26:59;;;;;;;5.70;4.27;;;;;;;;;;4912628;29;20324;-69
2023/07/14 03:29:26;;;;;;;4.30;3.83;;;;;;;;;;4931096;29;20221;-68
2023/07/14 03:31:52;;;;;;;6.43;3.73;;;;;;;;;;4950181;29;20535;-69
2023/07/14 03:34:22;;;;;;;5.67;4.10;;;;;;;;;;4932834;29;20682;-69
2023/07/14 03:36:50;;;;;;;6.63;4.30;;;;;;;;;;4950522;29;20210;-69
2023/07/14 03:39:27;;;;;;;5.27;4.13;;;;;;;;;;4950201;28;20221;-69
2023/07/14 03:41:54;;;;;;;6.00;4.30;;;;;;;;;;4954096;28;20190;-68
2023/07/14 03:44:24;;;;;;;8.03;4.47;;;;;;;;;;4951113;29;20670;-68
2023/07/14 03:46:51;;;;;;;6.60;4.17;;;;;;;;;;4933809;29;20655;-68
2023/07/14 03:49:17;;;;;;;8.97;4.73;;;;;;;;;;4931627;29;20199;-68
2023/07/14 03:51:44;;;;;;;6.97;4.27;;;;;;;;;;4954404;29;20194;-69
2023/07/14 03:54:11;;;;;;;6.33;3.87;;;;;;;;;;4954238;28;20222;-69
2023/07/14 03:56:38;;;;;;;8.33;4.90;;;;;;;;;;4933618;29;20704;-69
2023/07/14 03:59:04;;;;;;;6.57;4.23;;;;;;;;;;4946939;28;20222;-69
2023/07/14 04:01:31;;;;;;;7.83;4.00;;;;;;;;;;4954226;29;20902;-69
2023/07/14 04:03:58;;;;;;;5.93;4.20;;;;;;;;;;4945057;29;20641;-68
2023/07/14 04:06:30;;;;;;;4.83;3.90;;;;;;;;;;4953527;29;20194;-70
2023/07/14 04:08:58;;;;;;;7.43;4.97;;;;;;;;;;4933100;29;20198;-70
2023/07/14 04:11:24;;;;;;;6.93;5.03;;;;;;;;;;4936500;29;20249;-70
2023/07/14 04:13:51;;;;;;;7.43;4.40;;;;;;;;;;4953708;29;20610;-70
2023/07/14 04:16:18;;;;;;;9.33;4.53;;;;;;;;;;4953064;28;20194;-70
2023/07/14 04:18:45;;;;;;;6.13;3.63;;;;;;;;;;4949080;29;20625;-68
2023/07/14 04:21:12;;;;;;;8.20;3.70;;;;;;;;;;4933996;29;20207;-69
2023/07/14 04:23:39;;;;;;;7.57;3.80;;;;;;;;;;4950172;29;20190;-68
2023/07/14 04:26:11;;;;;;;8.23;3.50;;;;;;;;;;4950269;29;20206;-67
2023/07/14 04:28:38;;;;;;;8.03;3.57;;;;;;;;;;4934436;29;20214;-70
2023/07/14 04:31:05;;;;;;;4.77;3.20;;;;;;;;;;4950497;29;20221;-70
2023/07/14 04:33:32;;;;;;;4.73;2.93;;;;;;;;;;4933809;29;20249;-69
2023/07/14 04:35:59;;;;;;;4.80;3.20;;;;;;;;;;4950668;29;20953;-70
2023/07/14 04:38:26;;;;;;;5.83;2.93;;;;;;;;;;4950162;29;20254;-70
2023/07/14 04:41:13;;;;;;;6.17;2.83;;;;;;;;;;4950049;29;20240;-68
2023/07/14 04:43:40;;;;;;;4.60;2.87;;;;;;;;;;4950386;29;20220;-69
2023/07/14 04:46:07;;;;;;;5.07;3.20;;;;;;;;;;4932994;29;20222;-69
2023/07/14 04:48:33;;;;;;;9.60;3.30;;;;;;;;;;4950558;29;20202;-68
2023/07/14 04:51:00;;;;;;;6.60;2.83;;;;;;;;;;4950188;28;20198;-68
2023/07/14 04:53:27;;;;;;;5.90;2.20;;;;;;;;;;4950035;28;20273;-69
2023/07/14 04:55:54;;;;;;;7.83;2.57;;;;;;;;;;4949539;29;20222;-69
2023/07/14 04:58:21;;;;;;;5.20;2.30;;;;;;;;;;4949472;29;20194;-69
2023/07/14 05:00:49;;;;;;;4.97;2.10;;;;;;;;;;4949850;29;20277;-67
2023/07/14 05:03:16;;;;;;;3.23;2.00;;;;;;;;;;4941002;28;20941;-68
2023/07/14 05:05:43;;;;;;;7.03;2.40;;;;;;;;;;4933500;29;20273;-68
2023/07/14 05:08:10;;;;;;;7.40;2.20;;;;;;;;;;4949484;29;20198;-67
2023/07/14 05:10:38;;;;;;;5.20;2.30;;;;;;;;;;4949404;29;20277;-69
2023/07/14 05:13:04;;;;;;;3.93;2.20;;;;;;;;;;4949283;29;20214;-69
2023/07/14 05:15:31;;;;;;;5.13;1.90;;;;;;;;;;4948814;29;20205;-67
2023/07/14 05:17:58;;;;;;;5.40;2.57;;;;;;;;;;4938761;29;20214;-67
2023/07/14 05:20:25;;;;;;;7.00;2.00;;;;;;;;;;4948652;29;20194;-68
2023/07/14 05:22:52;;;;;;;6.90;2.40;;;;;;;;;;4949444;29;20197;-68
2023/07/14 05:25:19;;;;;;;5.73;2.10;;;;;;;;;;4949101;29;20208;-68
2023/07/14 05:27:46;;;;;;;5.73;1.80;;;;;;;;;;4949228;29;20251;-67
2023/07/14 05:30:15;;;;;;;6.87;2.13;;;;;;;;;;4949223;29;20198;-68
2023/07/14 05:32:43;;;;;;;6.87;1.87;;;;;;;;;;4950256;28;20190;-68
2023/07/14 05:35:11;;;;;;;4.57;1.80;;;;;;;;;;4930805;29;20216;-69
2023/07/14 05:37:38;;;;;;;5.27;2.17;;;;;;;;;;4949462;29;20197;-67
2023/07/14 05:40:06;;;;;;;4.37;2.17;;;;;;;;;;4944022;28;20238;-70
2023/07/14 05:42:33;;;;;;;4.17;1.77;;;;;;;;;;4949542;29;20198;-68
2023/07/14 05:45:00;;;;;;;5.27;1.93;;;;;;;;;;4916676;29;20224;-68
2023/07/14 05:47:26;;;;;;;5.00;1.97;;;;;;;;;;4955678;28;20206;-68
2023/07/14 05:49:54;;;;;;;4.77;1.80;;;;;;;;;;4942002;29;20610;-69
2023/07/14 05:52:21;;;;;;;5.43;2.20;;;;;;;;;;4948538;29;20949;-69
2023/07/14 05:54:48;;;;;;;5.30;2.40;;;;;;;;;;4946386;29;20202;-67
2023/07/14 05:57:14;;;;;;;5.57;2.10;;;;;;;;;;4948990;29;20194;-68
2023/07/14 05:59:42;;;;;;;3.67;1.90;;;;;;;;;;4947828;29;20272;-68
2023/07/14 06:02:13;;;;;;;4.13;1.97;;;;;;;;;;4948316;29;20208;-70
2023/07/14 06:04:40;;;;;;;5.43;2.00;;;;;;;;;;4945822;28;20197;-70
2023/07/14 06:07:10;;;;;;;7.70;2.13;;;;;;;;;;4948506;29;20273;-69
2023/07/14 06:09:37;;;;;;;6.77;1.97;;;;;;;;;;4948199;29;20225;-69
2023/07/14 06:12:04;;;;;;;4.03;2.07;;;;;;;;;;4947965;29;20194;-69
2023/07/14 06:14:32;;;;;;;2.90;1.57;;;;;;;;;;4948479;29;20206;-69
2023/07/14 06:16:59;;;;;;;6.23;2.10;;;;;;;;;;4931672;29;20202;-69
2023/07/14 06:19:27;;;;;;;2.40;1.80;;;;;;;;;;4940757;29;20570;-68
2023/07/14 06:22:11;;;;;;;5.33;2.00;;;;;;;;;;4949099;29;20170;-70
2023/07/14 06:24:38;;;;;;;5.23;1.80;;;;;;;;;;4948652;29;20198;-72
2023/07/14 06:27:24;;;;;;;2.87;1.50;;;;;;;;;;4934500;29;20182;-68
2023/07/14 06:29:51;;;;;;;5.60;2.00;;;;;;;;;;4948501;29;20189;-70
2023/07/14 06:32:18;;;;;;;7.17;2.00;;;;;;;;;;4931780;29;20270;-71
2023/07/14 06:34:44;;;;;;;4.53;2.10;;;;;;;;;;4931682;29;20760;-72
2023/07/14 06:37:11;;;;;;;3.20;1.87;;;;;;;;;;4931517;29;20228;-71
2023/07/14 06:39:38;;;;;;;5.07;1.77;;;;;;;;;;4947946;28;20346;-69
2023/07/14 06:42:05;;;;;;;9.90;1.73;;;;;;;;;;4948098;29;20755;-69
2023/07/14 06:44:32;;;;;;;5.83;1.87;;;;;;;;;;4948072;29;20205;-70
2023/07/14 06:46:59;;;;;;;3.17;1.60;;;;;;;;;;4915931;29;20217;-68
2023/07/14 06:49:26;;;;;;;4.77;1.80;;;;;;;;;;4947545;29;20285;-67
2023/07/14 06:51:55;;;;;;;5.03;2.13;;;;;;;;;;4932003;29;20590;-69
2023/07/14 06:54:22;;;;;;;3.60;1.90;;;;;;;;;;4930766;29;20249;-71
2023/07/14 06:56:48;;;;;;;4.43;2.00;;;;;;;;;;4948145;29;20554;-70
2023/07/14 06:59:15;;;;;;;4.93;1.70;;;;;;;;;;4930374;29;20217;-71
2023/07/14 07:01:42;;;;;;;4.83;1.70;;;;;;;;;;4915082;29;20210;-67
2023/07/14 07:04:09;;;;;;;5.60;1.60;;;;;;;;;;4947935;29;20315;-68
2023/07/14 07:06:36;;;;;;;4.60;1.57;;;;;;;;;;4929244;29;20194;-71
2023/07/14 07:09:04;;;;;;;5.97;1.70;;;;;;;;;;4928631;29;20202;-70
2023/07/14 07:11:33;;;;;;;4.60;1.40;;;;;;;;;;4946751;29;20198;-69
2023/07/14 07:14:00;;;;;;;4.30;1.70;;;;;;;;;;4929162;28;20233;-69
2023/07/14 07:16:27;;;;;;;3.57;1.50;;;;;;;;;;4934394;29;20277;-71
2023/07/14 07:18:55;;;;;;;4.13;1.30;;;;;;;;;;4952183;29;20202;-69
2023/07/14 07:21:22;;;;;;;3.53;1.40;;;;;;;;;;4951360;29;20304;-70
2023/07/14 07:23:48;;;;;;;4.60;1.30;;;;;;;;;;4952491;29;20213;-71
2023/07/14 07:26:15;;;;;;;7.03;1.43;;;;;;;;;;4933974;29;20261;-71
2023/07/14 07:28:42;;;;;;;2.00;1.13;;;;;;;;;;4950941;29;20261;-70
2023/07/14 07:31:28;;;;;;;3.13;1.40;;;;;;;;;;4950954;29;20232;-71
2023/07/14 07:33:55;;;;;;;7.13;1.67;;;;;;;;;;4951176;29;20187;-71
2023/07/14 07:36:39;;;;;;;3.97;1.60;;;;;;;;;;4950452;29;20174;-72
2023/07/14 07:39:06;;;;;;;3.53;1.47;;;;;;;;;;4950923;29;20202;-72
2023/07/14 07:41:33;;;;;;;2.67;1.40;;;;;;;;;;4912195;29;20206;-72
2023/07/14 07:44:01;;;;;;;3.43;1.50;;;;;;;;;;4916363;29;20283;-73
2023/07/14 07:46:28;;;;;;;2.97;1.27;;;;;;;;;;4933087;29;20195;-72
2023/07/14 07:49:12;;;;;;;3.10;1.30;;;;;;;;;;4932111;29;20278;-73
2023/07/14 07:51:39;;;;;;;5.33;1.70;;;;;;;;;;4931337;29;20943;-72
2023/07/14 07:54:06;;;;;;;3.60;1.30;;;;;;;;;;4932232;29;20557;-72
2023/07/14 07:56:33;;;;;;;4.23;1.23;;;;;;;;;;4914665;29;20259;-74
2023/07/14 07:59:01;;;;;;;2.67;1.47;;;;;;;;;;4915139;29;20289;-68
2023/07/14 08:01:28;;;;;;;2.57;1.20;;;;;;;;;;4931737;29;20299;-71
2023/07/14 08:03:55;;;;;;;3.67;1.50;;;;;;;;;;4915410;29;20722;-72
2023/07/14 08:06:24;;;;;;;2.57;1.17;;;;;;;;;;4915116;29;20939;-71
2023/07/14 08:08:51;;;;;;;3.80;1.27;;;;;;;;;;4931885;29;20673;-68
2023/07/14 08:11:18;;;;;;;4.07;1.00;;;;;;;;;;4931116;29;20191;-67
2023/07/14 08:13:45;;;;;;;2.87;1.20;;;;;;;;;;4931624;29;20191;-68
2023/07/14 08:16:12;;;;;;;1.73;1.03;;;;;;;;;;4930084;29;20207;-67
2023/07/14 08:18:40;;;;;;;3.73;1.23;;;;;;;;;;4931096;29;20253;-68
2023/07/14 08:21:07;;;;;;;2.13;1.13;;;;;;;;;;4931174;29;20191;-68
2023/07/14 08:23:36;;;;;;;2.20;1.00;;;;;;;;;;4931585;29;20613;-68
2023/07/14 08:26:04;;;;;;;4.10;1.23;;;;;;;;;;4929897;28;20222;-70
2023/07/14 08:28:30;;;;;;;3.33;1.13;;;;;;;;;;4929521;29;20729;-69
2023/07/14 08:30:58;;;;;;;2.70;1.43;;;;;;;;;;4930803;29;20284;-68
2023/07/14 08:33:25;;;;;;;1.80;1.10;;;;;;;;;;4897808;29;20194;-68
2023/07/14 08:35:52;;;;;;;2.43;1.17;;;;;;;;;;4930445;29;20238;-72
2023/07/14 08:38:19;;;;;;;2.43;1.30;;;;;;;;;;4930596;29;20202;-69
2023/07/14 08:40:47;;;;;;;5.50;1.30;;;;;;;;;;4932918;29;20230;-68
2023/07/14 08:43:43;;;;;;;2.00;1.07;;;;;;;;;;4950884;29;20289;-72
2023/07/14 08:46:13;;;;;;;2.20;0.97;;;;;;;;;;4933676;29;20224;-69
2023/07/14 08:48:45;;;;;;;1.57;1.00;;;;;;;;;;4951105;29;20191;-68
2023/07/14 08:51:17;;;;;;;5.60;1.40;;;;;;;;;;4934320;29;20248;-68
2023/07/14 08:53:55;;;;;;;2.30;1.00;;;;;;;;;;4950573;29;20199;-71
2023/07/14 08:56:22;;;;;;;3.23;1.10;;;;;;;;;;4933258;29;20257;-69
2023/07/14 08:58:49;;;;;;;3.80;1.20;;;;;;;;;;4916822;29;20230;-68
2023/07/14 09:01:35;;;;;;;1.73;0.80;;;;;;;;;;4933188;29;20276;-68
2023/07/14 09:04:05;;;;;;;2.57;1.17;;;;;;;;;;4949656;29;20201;-68
2023/07/14 09:06:33;;;;;;;3.73;1.00;;;;;;;;;;4932979;29;20202;-69
2023/07/14 09:09:00;;;;;;;4.07;1.23;;;;;;;;;;4949758;29;20194;-68
2023/07/14 09:11:26;;;;;;;3.70;1.00;;;;;;;;;;4931858;29;20210;-69
2023/07/14 09:14:03;;;;;;;3.37;1.00;;;;;;;;;;4949911;29;20260;-69
2023/07/14 09:16:31;;;;;;;4.47;1.23;;;;;;;;;;4949088;29;20590;-68
2023/07/14 09:19:12;;;;;;;4.23;1.20;;;;;;;;;;4932914;29;20554;-69
2023/07/14 09:21:45;;;;;;;3.00;1.03;;;;;;;;;;4914098;29;20223;-69
2023/07/14 09:24:11;;;;;;;2.53;0.90;;;;;;;;;;4913884;29;20227;-68
2023/07/14 09:26:45;;;;;;;2.77;1.20;;;;;;;;;;4930076;29;20550;-71
2023/07/14 09:29:16;;;;;;;4.03;1.27;;;;;;;;;;4930506;29;20202;-68
2023/07/14 09:32:03;;;;;;;2.63;1.13;;;;;;;;;;4929061;29;20946;-68
2023/07/14 09:34:39;;;;;;;2.63;1.07;;;;;;;;;;4916376;29;20207;-69
2023/07/14 09:37:18;;;;;;;3.27;1.10;;;;;;;;;;4949312;29;20220;-68
2023/07/14 09:39:45;;;;;;;1.43;0.93;;;;;;;;;;4912926;29;20658;-68
2023/07/14 09:42:22;;;;;;;4.60;1.17;;;;;;;;;;4914011;29;20184;-68
2023/07/14 09:44:50;;;;;;;2.20;0.93;;;;;;;;;;4935309;29;20203;-68
2023/07/14 09:47:35;;;;;;;3.80;1.20;;;;;;;;;;4948614;28;20193;-67
2023/07/14 09:50:02;;;;;;;3.90;1.20;;;;;;;;;;4948136;29;20200;-70
2023/07/14 09:52:48;;;;;;;2.30;1.00;;;;;;;;;;4932187;29;20685;-69
2023/07/14 09:55:15;;;;;;;2.20;1.00;;;;;;;;;;4949201;29;20204;-68
2023/07/14 09:57:42;;;;;;;2.40;1.10;;;;;;;;;;4932106;29;20195;-67
2023/07/14 10:00:20;;;;;;;2.60;1.10;;;;;;;;;;4931619;29;20240;-67
2023/07/14 10:02:58;;;;;;;2.17;0.90;;;;;;;;;;4948751;29;20202;-68
2023/07/14 10:05:30;;;;;;;5.10;1.20;;;;;;;;;;4931537;29;20316;-67
2023/07/14 10:08:26;;;;;;;3.67;1.07;;;;;;;;;;4934070;29;20185;-70
2023/07/14 10:10:55;;;;;;;2.00;1.00;;;;;;;;;;4914126;29;20677;-67
2023/07/14 10:13:22;;;;;;;5.77;1.40;;;;;;;;;;4931256;29;20528;-68
2023/07/14 10:16:21;;;;;;;2.53;1.00;;;;;;;;;;4914816;29;20199;-68
2023/07/14 10:18:53;;;;;;;1.57;0.90;;;;;;;;;;4881072;29;20678;-68
2023/07/14 10:21:30;;;;;;;3.43;1.27;;;;;;;;;;4915034;29;20321;-68
2023/07/14 10:23:56;;;;;;;1.83;1.00;;;;;;;;;;4931603;29;20214;-68
2023/07/14 10:26:26;;;;;;;2.80;1.40;;;;;;;;;;4931029;29;20197;-68
2023/07/14 10:28:53;;;;;;;2.17;1.10;;;;;;;;;;4914713;29;20242;-69
2023/07/14 10:31:41;;;;;;;2.87;1.30;;;;;;;;;;4917116;29;20230;-68
2023/07/14 10:34:23;;;;;;;3.60;1.30;;;;;;;;;;4914243;29;20300;-69
2023/07/14 10:36:52;;;;;;;3.13;1.07;;;;;;;;;;4931436;29;20675;-69
2023/07/14 10:39:37;;;;;;;3.07;0.97;;;;;;;;;;4931142;28;20324;-68
2023/07/14 10:42:05;;;;;;;1.97;1.00;;;;;;;;;;4913998;29;20229;-68
2023/07/14 10:44:33;;;;;;;2.70;1.10;;;;;;;;;;4931064;29;20190;-68
2023/07/14 10:47:05;;;;;;;3.33;0.90;;;;;;;;;;4914320;29;20617;-69
2023/07/14 10:49:34;;;;;;;2.23;1.00;;;;;;;;;;4930601;29;20195;-68
2023/07/14 10:52:17;;;;;;;4.03;1.27;;;;;;;;;;4914319;29;20269;-68
2023/07/14 10:54:46;;;;;;;2.43;1.07;;;;;;;;;;4930909;29;20208;-69
2023/07/14 10:57:16;;;;;;;5.10;1.10;;;;;;;;;;4931282;29;20629;-68
2023/07/14 10:59:45;;;;;;;2.40;1.00;;;;;;;;;;4945335;29;20237;-68
2023/07/14 11:02:19;;;;;;;3.20;1.17;;;;;;;;;;4933008;29;20602;-68
2023/07/14 11:04:48;;;;;;;4.33;1.20;;;;;;;;;;4916840;29;20200;-68
2023/07/14 11:07:33;;;;;;;2.53;1.13;;;;;;;;;;4935852;29;20178;-69
2023/07/14 11:10:00;;;;;;;6.57;1.63;;;;;;;;;;4933101;29;20253;-69
2023/07/14 11:12:41;;;;;;;2.57;1.00;;;;;;;;;;4950339;29;20207;-68
2023/07/14 11:15:15;;;;;;;3.53;1.13;;;;;;;;;;4950176;29;20656;-68
2023/07/14 11:17:48;;;;;;;6.00;1.70;;;;;;;;;;4949789;29;21047;-68
2023/07/14 11:20:21;;;;;;;3.17;1.20;;;;;;;;;;4933147;29;20207;-68
2023/07/14 11:22:49;;;;;;;3.10;1.00;;;;;;;;;;4950181;29;20965;-68
2023/07/14 11:25:39;;;;;;;2.23;1.23;;;;;;;;;;4949879;29;20200;-68
2023/07/14 11:28:13;;;;;;;3.90;1.20;;;;;;;;;;4949565;29;20198;-70
2023/07/14 11:30:40;;;;;;;3.77;1.40;;;;;;;;;;4933906;29;21000;-68
2023/07/14 11:33:15;;;;;;;6.07;1.23;;;;;;;;;;4932917;29;20194;-68
2023/07/14 11:36:00;;;;;;;4.00;1.50;;;;;;;;;;4949836;29;20257;-68
2023/07/14 11:38:48;;;;;;;3.07;1.60;;;;;;;;;;4949223;29;20546;-68
2023/07/14 11:41:15;;;;;;;3.00;1.50;;;;;;;;;;4949401;29;20241;-68
2023/07/14 11:43:42;;;;;;;4.87;1.20;;;;;;;;;;4949509;29;20194;-68
2023/07/14 11:46:13;;;;;;;3.50;1.33;;;;;;;;;;4949686;29;20665;-68
2023/07/14 11:48:58;;;;;;;5.07;1.50;;;;;;;;;;4933359;29;20669;-68
2023/07/14 11:51:43;;;;;;;3.00;1.30;;;;;;;;;;4949758;29;20190;-68
2023/07/14 11:54:40;;;;;;;2.30;1.43;;;;;;;;;;4949588;29;20264;-68
2023/07/14 11:57:08;;;;;;;3.77;1.40;;;;;;;;;;4949640;29;20194;-68
2023/07/14 11:59:35;;;;;;;3.60;1.90;;;;;;;;;;4949347;29;20655;-68
2023/07/14 12:02:21;;;;;;;3.47;1.23;;;;;;;;;;4935038;29;20573;-68
2023/07/14 12:05:32;;;;;;;5.03;1.60;;;;;;;;;;4952690;29;20174;-68
2023/07/14 12:08:01;;;;;;;2.83;1.30;;;;;;;;;;4950899;29;20210;-68
2023/07/14 12:10:46;;;;;;;3.47;1.50;;;;;;;;;;4952927;29;20185;-68
2023/07/14 12:13:16;;;;;;;3.70;1.30;;;;;;;;;;4936129;29;20197;-68
2023/07/14 12:16:00;;;;;;;4.13;1.20;;;;;;;;;;4947041;29;20185;-68
2023/07/14 12:18:32;;;;;;;3.47;1.23;;;;;;;;;;4953182;29;20214;-68
2023/07/14 12:21:14;;;;;;;5.50;1.40;;;;;;;;;;4953033;29;20221;-68
2023/07/14 12:23:48;;;;;;;2.90;1.40;;;;;;;;;;4952695;29;20273;-68
2023/07/14 12:26:51;;;;;;;3.10;1.30;;;;;;;;;;4952698;29;20234;-68
2023/07/14 12:29:18;;;;;;;3.97;1.70;;;;;;;;;;4952415;29;20221;-69
2023/07/14 12:31:52;;;;;;;4.57;1.60;;;;;;;;;;4952546;29;20186;-69
2023/07/14 12:34:20;;;;;;;3.73;1.30;;;;;;;;;;4935276;29;20199;-69
2023/07/14 12:36:47;;;;;;;2.87;1.13;;;;;;;;;;4952819;29;20189;-70
2023/07/14 12:39:13;;;;;;;4.73;1.60;;;;;;;;;;4952923;28;20249;-69
2023/07/14 12:41:41;;;;;;;2.43;1.20;;;;;;;;;;4952647;28;20232;-69
2023/07/14 12:44:20;;;;;;;2.60;1.17;;;;;;;;;;4952112;29;20209;-68
2023/07/14 12:46:47;;;;;;;2.13;1.33;;;;;;;;;;4932629;29;20233;-66
2023/07/14 12:49:33;;;;;;;3.23;1.30;;;;;;;;;;4948337;29;21001;-68
2023/07/14 12:52:07;;;;;;;4.37;1.50;;;;;;;;;;4930300;29;20194;-69
2023/07/14 12:54:34;;;;;;;4.03;1.20;;;;;;;;;;4951060;29;20205;-68
2023/07/14 12:57:02;;;;;;;4.83;1.37;;;;;;;;;;4932638;29;20206;-68
2023/07/14 12:59:28;;;;;;;3.20;1.30;;;;;;;;;;4933360;29;20539;-68
2023/07/14 13:02:12;;;;;;;3.03;1.13;;;;;;;;;;4950499;29;20193;-68
2023/07/14 13:04:39;;;;;;;4.00;1.30;;;;;;;;;;4934027;29;20288;-68
2023/07/14 13:07:28;;;;;;;4.57;1.20;;;;;;;;;;4951655;29;20178;-67
2023/07/14 13:10:27;;;;;;;1.50;1.20;;;;;;;;;;4951581;29;20657;-67
2023/07/14 13:12:55;;;;;;;2.67;1.10;;;;;;;;;;4909419;28;20198;-68
2023/07/14 13:15:25;;;;;;;2.83;1.30;;;;;;;;;;4924917;29;20191;-69
2023/07/14 13:17:58;;;;;;;3.17;1.30;;;;;;;;;;4929294;29;20293;-67
2023/07/14 13:20:28;;;;;;;2.57;1.10;;;;;;;;;;4930120;29;20574;-68
2023/07/14 13:23:18;;;;;;;3.43;1.53;;;;;;;;;;4929949;29;20226;-67
2023/07/14 13:25:54;;;;;;;2.77;1.70;;;;;;;;;;4930783;29;20202;-67
2023/07/14 13:28:28;;;;;;;4.17;1.70;;;;;;;;;;4930738;29;20205;-68
2023/07/14 13:30:54;;;;;;;3.60;1.10;;;;;;;;;;4930248;29;20198;-68
2023/07/14 13:33:23;;;;;;;3.00;1.10;;;;;;;;;;4933529;29;20271;-67
2023/07/14 13:35:54;;;;;;;3.33;1.20;;;;;;;;;;4933876;29;20434;-67
2023/07/14 13:38:39;;;;;;;3.63;1.30;;;;;;;;;;4933296;29;20182;-68
2023/07/14 13:41:09;;;;;;;2.00;1.13;;;;;;;;;;4932972;29;20254;-69
2023/07/14 13:44:11;;;;;;;3.50;1.30;;;;;;;;;;4933227;29;20265;-69
2023/07/14 13:46:38;;;;;;;2.73;1.20;;;;;;;;;;4911208;29;20901;-68
2023/07/14 13:49:07;;;;;;;3.13;1.20;;;;;;;;;;4944056;29;20190;-69
2023/07/14 13:51:35;;;;;;;4.77;1.50;;;;;;;;;;4952418;29;20191;-68
2023/07/14 13:54:05;;;;;;;2.37;1.20;;;;;;;;;;4952674;29;20199;-68
2023/07/14 13:56:34;;;;;;;3.33;1.00;;;;;;;;;;4935579;29;20206;-69
2023/07/14 13:59:06;;;;;;;1.93;1.10;;;;;;;;;;4952604;29;20227;-69
2023/07/14 14:01:33;;;;;;;4.67;1.50;;;;;;;;;;4948318;29;20227;-69
2023/07/14 14:03:59;;;;;;;2.80;1.23;;;;;;;;;;4952358;28;20194;-67
2023/07/14 14:06:28;;;;;;;2.53;1.00;;;;;;;;;;4952219;29;20272;-68
2023/07/14 14:08:55;;;;;;;2.93;1.00;;;;;;;;;;4951548;29;20711;-66
2023/07/14 14:11:22;;;;;;;5.10;1.40;;;;;;;;;;4952191;29;20569;-67
2023/07/14 14:13:48;;;;;;;2.73;0.93;;;;;;;;;;4951804;28;20204;-70
2023/07/14 14:16:16;;;;;;;3.10;0.93;;;;;;;;;;4951369;29;20561;-67
2023/07/14 14:18:43;;;;;;;6.23;1.33;;;;;;;;;;4919117;29;20672;-67
2023/07/14 14:21:11;;;;;;;4.17;1.27;;;;;;;;;;4934708;29;20249;-68
2023/07/14 14:23:38;;;;;;;2.60;1.60;;;;;;;;;;4934703;28;20244;-67
2023/07/14 14:26:23;;;;;;;3.07;1.07;;;;;;;;;;4951837;29;20240;-68
2023/07/14 14:28:50;;;;;;;2.57;0.93;;;;;;;;;;4951398;29;20195;-68
2023/07/14 14:31:17;;;;;;;3.67;1.30;;;;;;;;;;4951629;29;20194;-69
2023/07/14 14:33:44;;;;;;;2.43;1.10;;;;;;;;;;4951235;29;20194;-69
2023/07/14 14:36:13;;;;;;;3.17;1.10;;;;;;;;;;4951942;29;20201;-69
2023/07/14 14:38:42;;;;;;;2.77;0.77;;;;;;;;;;4951470;29;20702;-69
2023/07/14 14:41:17;;;;;;;2.33;0.90;;;;;;;;;;4951778;28;20236;-69
2023/07/14 14:43:46;;;;;;;4.57;0.90;;;;;;;;;;4951888;29;20241;-71
2023/07/14 14:46:13;;;;;;;1.17;0.80;;;;;;;;;;4951671;28;20198;-68
2023/07/14 14:48:40;;;;;;;3.70;0.90;;;;;;;;;;4929116;29;20226;-70
2023/07/14 14:51:08;;;;;;;2.43;0.90;;;;;;;;;;4952017;28;20587;-70
2023/07/14 14:53:37;;;;;;;1.40;0.70;;;;;;;;;;4951732;29;20185;-70
2023/07/14 14:56:06;;;;;;;1.80;0.80;;;;;;;;;;4946622;29;20194;-69
2023/07/14 14:58:33;;;;;;;2.27;1.10;;;;;;;;;;4933989;29;20198;-68
2023/07/14 15:01:00;;;;;;;0.97;0.80;;;;;;;;;;4944760;29;20214;-68
2023/07/14 15:03:27;;;;;;;1.83;1.07;;;;;;;;;;4951028;29;20286;-68
2023/07/14 15:05:54;;;;;;;1.27;0.70;;;;;;;;;;4950937;29;20222;-68
2023/07/14 15:08:21;;;;;;;2.80;0.80;;;;;;;;;;4950876;29;20190;-68
2023/07/14 15:10:51;;;;;;;1.97;0.97;;;;;;;;;;4951116;29;20195;-68
2023/07/14 15:13:25;;;;;;;2.10;0.90;;;;;;;;;;4934127;29;20229;-68
2023/07/14 15:15:54;;;;;;;1.23;0.60;;;;;;;;;;4934466;29;20209;-68
2023/07/14 15:18:21;;;;;;;1.27;0.70;;;;;;;;;;4951057;29;20186;-68
2023/07/14 15:20:48;;;;;;;1.57;0.80;;;;;;;;;;4950861;29;20322;-68
2023/07/14 15:23:15;;;;;;;1.97;0.90;;;;;;;;;;4951165;29;20213;-68
2023/07/14 15:25:44;;;;;;;3.90;1.30;;;;;;;;;;4950905;29;20257;-69
2023/07/14 15:28:17;;;;;;;2.57;0.90;;;;;;;;;;4950414;29;20229;-70
2023/07/14 15:31:02;;;;;;;2.60;0.90;;;;;;;;;;4936296;29;20272;-70
2023/07/14 15:33:28;;;;;;;3.03;1.10;;;;;;;;;;4950669;29;20273;-69
2023/07/14 15:35:55;;;;;;;1.57;0.87;;;;;;;;;;4953252;28;20658;-70
2023/07/14 15:38:37;;;;;;;2.60;1.07;;;;;;;;;;4956218;29;20194;-70
2023/07/14 15:41:21;;;;;;;2.53;0.70;;;;;;;;;;4943762;29;20228;-70